createdAt,value
2019-01-16T00:00:38.883Z,0
2019-01-16T00:01:41.023Z,0
2019-01-16T00:02:43.180Z,0
2019-01-16T00:03:45.333Z,0
2019-01-16T00:04:47.985Z,0
2019-01-16T00:05:50.127Z,0
2019-01-16T00:06:52.320Z,0
2019-01-16T00:07:54.506Z,0
2019-01-16T00:08:56.917Z,0
2019-01-16T00:09:59.062Z,0
2019-01-16T00:11:01.204Z,0
2019-01-16T00:12:03.469Z,0
2019-01-16T00:13:05.600Z,0
2019-01-16T00:14:08.051Z,0
2019-01-16T00:15:10.192Z,0
2019-01-16T00:16:12.732Z,0
2019-01-16T00:17:14.876Z,0
2019-01-16T00:18:18.703Z,0
2019-01-16T00:19:20.824Z,0
2019-01-16T00:20:23.033Z,0
2019-01-16T00:21:25.207Z,0
2019-01-16T00:22:27.366Z,0
2019-01-16T00:23:29.499Z,0
2019-01-16T00:24:31.630Z,0
2019-01-16T00:25:33.796Z,0
2019-01-16T00:26:35.922Z,0
2019-01-16T00:27:38.091Z,0
2019-01-16T00:28:40.236Z,0
2019-01-16T00:29:42.384Z,0
2019-01-16T00:30:44.568Z,0
2019-01-16T00:31:47.083Z,0
2019-01-16T00:32:49.588Z,0
2019-01-16T00:33:52.224Z,0
2019-01-16T00:34:54.408Z,0
2019-01-16T00:35:56.636Z,0
2019-01-16T00:36:58.774Z,0
2019-01-16T00:38:00.962Z,0
2019-01-16T00:39:03.079Z,0
2019-01-16T00:40:05.261Z,0
2019-01-16T00:41:07.403Z,0
2019-01-16T00:42:10.586Z,0
2019-01-16T00:43:12.743Z,0
2019-01-16T00:44:14.885Z,0
2019-01-16T00:45:17.417Z,0
2019-01-16T00:46:19.568Z,0
2019-01-16T00:47:21.704Z,0
2019-01-16T00:48:26.014Z,0
2019-01-16T00:49:28.159Z,0
2019-01-16T00:50:30.327Z,0
2019-01-16T00:51:32.878Z,0
2019-01-16T00:52:35.010Z,0
2019-01-16T00:53:37.488Z,0
2019-01-16T00:54:39.607Z,0
2019-01-16T00:55:41.739Z,0
2019-01-16T00:56:44.174Z,0
2019-01-16T00:57:46.397Z,0
2019-01-16T00:58:48.538Z,0
2019-01-16T00:59:50.985Z,0
2019-01-16T01:00:53.107Z,0
2019-01-16T01:01:55.229Z,0
2019-01-16T01:02:57.358Z,0
2019-01-16T01:03:59.563Z,0
2019-01-16T01:05:06.551Z,0
2019-01-16T01:06:09.115Z,0
2019-01-16T01:07:11.547Z,0
2019-01-16T01:08:13.675Z,0
2019-01-16T01:09:15.819Z,0
2019-01-16T01:10:17.959Z,0
2019-01-16T01:11:20.104Z,0
2019-01-16T01:12:22.230Z,0
2019-01-16T01:13:24.369Z,0
2019-01-16T01:14:26.516Z,0
2019-01-16T01:15:28.632Z,0
2019-01-16T01:16:30.761Z,0
2019-01-16T01:17:32.893Z,0
2019-01-16T01:18:42.644Z,0
2019-01-16T01:19:44.798Z,0
2019-01-16T01:20:46.923Z,0
2019-01-16T01:21:49.065Z,0
2019-01-16T01:22:51.222Z,0
2019-01-16T01:23:53.480Z,0
2019-01-16T01:24:55.634Z,0
2019-01-16T01:25:57.776Z,0
2019-01-16T01:26:59.920Z,0
2019-01-16T01:28:02.426Z,0
2019-01-16T01:29:04.565Z,0
2019-01-16T01:30:06.709Z,0
2019-01-16T01:31:08.856Z,0
2019-01-16T01:32:10.992Z,0
2019-01-16T01:33:13.130Z,0
2019-01-16T01:34:15.243Z,0
2019-01-16T01:35:17.661Z,0
2019-01-16T01:36:19.798Z,0
2019-01-16T01:37:22.219Z,0
2019-01-16T01:38:24.361Z,0
2019-01-16T01:39:26.553Z,0
2019-01-16T01:40:28.680Z,0
2019-01-16T01:41:30.812Z,0
2019-01-16T01:42:33.231Z,0
2019-01-16T01:43:35.666Z,0
2019-01-16T01:44:38.097Z,0
2019-01-16T01:45:40.237Z,0
2019-01-16T01:46:42.381Z,0
2019-01-16T01:47:44.865Z,0
2019-01-16T01:48:47.019Z,0
2019-01-16T01:49:49.153Z,0
2019-01-16T01:50:51.278Z,0
2019-01-16T01:51:53.429Z,0
2019-01-16T01:52:55.569Z,0
2019-01-16T01:53:58.087Z,0
2019-01-16T01:55:00.264Z,0
2019-01-16T01:56:02.399Z,0
2019-01-16T01:57:04.548Z,0
2019-01-16T01:58:06.997Z,0
2019-01-16T01:59:09.517Z,0
2019-01-16T02:00:13.536Z,0
2019-01-16T02:01:15.675Z,0
2019-01-16T02:02:17.812Z,0
2019-01-16T02:03:19.935Z,0
2019-01-16T02:04:22.062Z,0
2019-01-16T02:05:24.200Z,0
2019-01-16T02:06:26.329Z,0
2019-01-16T02:07:28.478Z,0
2019-01-16T02:08:30.629Z,0
2019-01-16T02:09:32.779Z,0
2019-01-16T02:10:34.910Z,0
2019-01-16T02:11:37.068Z,0
2019-01-16T02:12:39.213Z,0
2019-01-16T02:13:41.394Z,0
2019-01-16T02:14:43.543Z,0
2019-01-16T02:15:45.670Z,0
2019-01-16T02:16:47.821Z,0
2019-01-16T02:17:49.953Z,0
2019-01-16T02:18:52.377Z,0
2019-01-16T02:19:54.500Z,0
2019-01-16T02:20:56.651Z,0
2019-01-16T02:21:58.795Z,0
2019-01-16T02:23:00.946Z,0
2019-01-16T02:24:03.363Z,0
2019-01-16T02:25:05.895Z,0
2019-01-16T02:26:08.041Z,0
2019-01-16T02:27:10.468Z,0
2019-01-16T02:28:12.596Z,0
2019-01-16T02:29:14.740Z,0
2019-01-16T02:30:17.471Z,0
2019-01-16T02:31:19.618Z,0
2019-01-16T02:32:21.763Z,0
2019-01-16T02:33:23.900Z,0
2019-01-16T02:34:26.028Z,0
2019-01-16T02:35:28.202Z,0
2019-01-16T02:36:30.365Z,0
2019-01-16T02:37:32.496Z,0
2019-01-16T02:38:34.651Z,0
2019-01-16T02:39:36.791Z,0
2019-01-16T02:40:38.925Z,0
2019-01-16T02:41:41.116Z,0
2019-01-16T02:42:43.232Z,0
2019-01-16T02:43:45.751Z,0
2019-01-16T02:44:47.896Z,0
2019-01-16T02:45:50.335Z,0
2019-01-16T02:46:52.482Z,0
2019-01-16T02:47:54.614Z,0
2019-01-16T02:48:57.728Z,0
2019-01-16T02:49:59.885Z,0
2019-01-16T02:51:02.312Z,0
2019-01-16T02:52:04.464Z,0
2019-01-16T02:53:06.628Z,0
2019-01-16T02:54:09.062Z,0
2019-01-16T02:55:11.177Z,0
2019-01-16T02:56:13.322Z,0
2019-01-16T02:57:15.480Z,0
2019-01-16T02:58:17.623Z,0
2019-01-16T02:59:19.765Z,0
2019-01-16T03:00:21.913Z,0
2019-01-16T03:01:24.043Z,0
2019-01-16T03:02:26.182Z,0
2019-01-16T03:03:28.796Z,0
2019-01-16T03:04:30.932Z,0
2019-01-16T03:05:33.062Z,0
2019-01-16T03:06:35.198Z,0
2019-01-16T03:07:37.636Z,0
2019-01-16T03:08:40.101Z,0
2019-01-16T03:09:42.524Z,0
2019-01-16T03:10:44.681Z,0
2019-01-16T03:11:46.820Z,0
2019-01-16T03:12:48.965Z,0
2019-01-16T03:13:51.106Z,0
2019-01-16T03:14:53.828Z,0
2019-01-16T03:15:55.973Z,0
2019-01-16T03:16:58.118Z,0
2019-01-16T03:18:00.226Z,0
2019-01-16T03:19:06.195Z,0
2019-01-16T03:20:08.360Z,0
2019-01-16T03:21:11.180Z,0
2019-01-16T03:22:13.570Z,0
2019-01-16T03:23:15.736Z,0
2019-01-16T03:24:19.047Z,0
2019-01-16T03:25:21.467Z,0
2019-01-16T03:26:24.201Z,0
2019-01-16T03:27:26.448Z,0
2019-01-16T03:28:28.581Z,0
2019-01-16T03:29:31.006Z,0
2019-01-16T03:30:34.177Z,0
2019-01-16T03:31:37.586Z,0
2019-01-16T03:32:40.720Z,0
2019-01-16T03:33:42.894Z,0
2019-01-16T03:34:45.009Z,0
2019-01-16T03:35:47.150Z,0
2019-01-16T03:36:49.290Z,0
2019-01-16T03:37:51.443Z,0
2019-01-16T03:38:53.577Z,0
2019-01-16T03:39:55.713Z,0
2019-01-16T03:40:58.144Z,0
2019-01-16T03:42:00.584Z,0
2019-01-16T03:43:03.397Z,0
2019-01-16T03:44:05.547Z,0
2019-01-16T03:45:07.988Z,0
2019-01-16T03:46:10.158Z,0
2019-01-16T03:47:12.303Z,0
2019-01-16T03:48:14.484Z,0
2019-01-16T03:49:16.932Z,0
2019-01-16T03:50:19.111Z,0
2019-01-16T03:51:21.240Z,0
2019-01-16T03:52:23.378Z,0
2019-01-16T03:53:25.933Z,0
2019-01-16T03:54:28.116Z,0
2019-01-16T03:55:30.251Z,0
2019-01-16T03:56:32.673Z,0
2019-01-16T03:57:34.861Z,0
2019-01-16T03:58:37.018Z,0
2019-01-16T03:59:39.463Z,0
2019-01-16T04:00:41.597Z,0
2019-01-16T04:01:43.724Z,0
2019-01-16T04:02:46.445Z,0
2019-01-16T04:03:48.576Z,0
2019-01-16T04:04:50.980Z,0
2019-01-16T04:05:53.386Z,0
2019-01-16T04:06:56.041Z,0
2019-01-16T04:07:58.178Z,0
2019-01-16T04:09:00.310Z,0
2019-01-16T04:10:02.786Z,0
2019-01-16T04:11:05.417Z,0
2019-01-16T04:12:07.590Z,0
2019-01-16T04:13:10.337Z,0
2019-01-16T04:14:12.474Z,0
2019-01-16T04:15:14.598Z,0
2019-01-16T04:16:17.048Z,0
2019-01-16T04:17:19.192Z,0
2019-01-16T04:18:21.331Z,0
2019-01-16T04:19:23.509Z,0
2019-01-16T04:20:25.664Z,0
2019-01-16T04:21:27.829Z,0
2019-01-16T04:22:29.962Z,0
2019-01-16T04:23:32.690Z,0
2019-01-16T04:24:34.821Z,0
2019-01-16T04:25:37.269Z,0
2019-01-16T04:26:39.445Z,0
2019-01-16T04:27:41.602Z,0
2019-01-16T04:28:43.747Z,0
2019-01-16T04:29:45.935Z,0
2019-01-16T04:30:48.065Z,0
2019-01-16T04:31:50.184Z,0
2019-01-16T04:32:52.339Z,0
2019-01-16T04:33:54.892Z,0
2019-01-16T04:34:57.397Z,0
2019-01-16T04:35:59.508Z,0
2019-01-16T04:37:02.061Z,0
2019-01-16T04:38:04.881Z,0
2019-01-16T04:39:07.028Z,0
2019-01-16T04:40:09.161Z,0
2019-01-16T04:41:11.585Z,0
2019-01-16T04:42:14.384Z,0
2019-01-16T04:43:16.532Z,0
2019-01-16T04:44:19.066Z,0
2019-01-16T04:45:21.488Z,0
2019-01-16T04:46:23.614Z,0
2019-01-16T04:47:25.761Z,0
2019-01-16T04:48:27.915Z,0
2019-01-16T04:49:32.037Z,0
2019-01-16T04:50:34.171Z,0
2019-01-16T04:51:36.312Z,0
2019-01-16T04:52:38.500Z,0
2019-01-16T04:53:41.036Z,0
2019-01-16T04:54:43.197Z,0
2019-01-16T04:55:45.340Z,0
2019-01-16T04:56:47.463Z,0
2019-01-16T04:57:49.885Z,0
2019-01-16T04:58:52.307Z,0
2019-01-16T04:59:54.496Z,0
2019-01-16T05:00:56.653Z,0
2019-01-16T05:01:58.801Z,0
2019-01-16T05:03:01.237Z,0
2019-01-16T05:04:03.705Z,0
2019-01-16T05:05:05.836Z,0
2019-01-16T05:06:07.989Z,0
2019-01-16T05:07:10.434Z,0
2019-01-16T05:08:13.237Z,0
2019-01-16T05:09:15.921Z,0
2019-01-16T05:10:18.060Z,0
2019-01-16T05:11:20.577Z,0
2019-01-16T05:12:22.737Z,0
2019-01-16T05:13:25.186Z,0
2019-01-16T05:14:28.037Z,0
2019-01-16T05:15:30.177Z,0
2019-01-16T05:16:32.327Z,0
2019-01-16T05:17:34.463Z,0
2019-01-16T05:18:36.595Z,0
2019-01-16T05:19:40.252Z,0
2019-01-16T05:20:42.387Z,0
2019-01-16T05:21:44.818Z,0
2019-01-16T05:22:46.958Z,0
2019-01-16T05:23:49.376Z,0
2019-01-16T05:24:51.811Z,0
2019-01-16T05:25:54.298Z,0
2019-01-16T05:26:56.730Z,0
2019-01-16T05:27:58.869Z,0
2019-01-16T05:29:01.020Z,0
2019-01-16T05:30:03.181Z,0
2019-01-16T05:31:05.923Z,0
2019-01-16T05:32:08.449Z,0
2019-01-16T05:33:10.596Z,0
2019-01-16T05:34:12.744Z,0
2019-01-16T05:35:14.888Z,0
2019-01-16T05:36:17.024Z,0
2019-01-16T05:37:19.473Z,0
2019-01-16T05:38:21.598Z,0
2019-01-16T05:39:24.409Z,0
2019-01-16T05:40:26.543Z,0
2019-01-16T05:41:28.681Z,0
2019-01-16T05:42:30.856Z,0
2019-01-16T05:43:33.014Z,0
2019-01-16T05:44:35.143Z,0
2019-01-16T05:45:37.744Z,0
2019-01-16T05:46:39.936Z,0
2019-01-16T05:47:42.066Z,0
2019-01-16T05:48:44.203Z,0
2019-01-16T05:49:48.666Z,0
2019-01-16T05:50:50.814Z,0
2019-01-16T05:51:53.344Z,0
2019-01-16T05:52:55.489Z,0
2019-01-16T05:53:57.654Z,0
2019-01-16T05:54:59.808Z,0
2019-01-16T05:56:02.219Z,0
2019-01-16T05:57:04.375Z,0
2019-01-16T05:58:06.515Z,0
2019-01-16T05:59:08.732Z,0
2019-01-16T06:00:10.868Z,0
2019-01-16T06:01:13.062Z,0
2019-01-16T06:02:15.510Z,0
2019-01-16T06:03:17.915Z,0
2019-01-16T06:04:20.354Z,0
2019-01-16T06:05:22.475Z,0
2019-01-16T06:06:24.617Z,0
2019-01-16T06:07:26.749Z,0
2019-01-16T06:08:28.912Z,0
2019-01-16T06:09:31.057Z,0
2019-01-16T06:10:33.473Z,0
2019-01-16T06:11:36.277Z,0
2019-01-16T06:12:38.419Z,0
2019-01-16T06:13:40.552Z,0
2019-01-16T06:14:42.689Z,0
2019-01-16T06:15:44.834Z,0
2019-01-16T06:16:47.257Z,0
2019-01-16T06:17:49.793Z,0
2019-01-16T06:18:51.939Z,0
2019-01-16T06:19:55.493Z,0
2019-01-16T06:20:57.628Z,0
2019-01-16T06:21:59.756Z,0
2019-01-16T06:23:01.886Z,0
2019-01-16T06:24:04.019Z,0
2019-01-16T06:25:06.560Z,0
2019-01-16T06:26:08.700Z,0
2019-01-16T06:27:11.221Z,0
2019-01-16T06:28:13.378Z,0
2019-01-16T06:29:15.817Z,0
2019-01-16T06:30:17.953Z,0
2019-01-16T06:31:20.082Z,0
2019-01-16T06:32:22.214Z,0
2019-01-16T06:33:25.647Z,0
2019-01-16T06:34:27.793Z,0
2019-01-16T06:35:30.258Z,0
2019-01-16T06:36:32.396Z,0
2019-01-16T06:37:34.799Z,0
2019-01-16T06:38:36.970Z,0
2019-01-16T06:39:39.116Z,0
2019-01-16T06:40:41.256Z,0
2019-01-16T06:41:43.667Z,0
2019-01-16T06:42:45.792Z,0
2019-01-16T06:43:47.955Z,0
2019-01-16T06:44:50.071Z,0
2019-01-16T06:45:52.217Z,0
2019-01-16T06:46:54.367Z,0
2019-01-16T06:47:56.498Z,0
2019-01-16T06:48:58.666Z,0
2019-01-16T06:50:03.443Z,0
2019-01-16T06:51:05.580Z,0
2019-01-16T06:52:07.739Z,0
2019-01-16T06:53:09.865Z,0
2019-01-16T06:54:11.990Z,0
2019-01-16T06:55:14.194Z,0
2019-01-16T06:56:16.317Z,0
2019-01-16T06:57:18.435Z,0
2019-01-16T06:58:20.857Z,0
2019-01-16T06:59:22.997Z,0
2019-01-16T07:00:25.147Z,0
2019-01-16T07:01:27.282Z,0
2019-01-16T07:02:29.423Z,0
2019-01-16T07:03:31.562Z,0
2019-01-16T07:04:33.699Z,0
2019-01-16T07:05:35.853Z,0
2019-01-16T07:06:38.043Z,0
2019-01-16T07:07:40.181Z,0
2019-01-16T07:08:42.350Z,0
2019-01-16T07:09:44.768Z,0
2019-01-16T07:10:47.190Z,0
2019-01-16T07:11:49.355Z,0
2019-01-16T07:12:51.534Z,0
2019-01-16T07:13:54.067Z,0
2019-01-16T07:14:56.189Z,0
2019-01-16T07:15:58.318Z,0
2019-01-16T07:17:00.454Z,0
2019-01-16T07:18:02.582Z,0
2019-01-16T07:19:04.734Z,0
2019-01-16T07:20:11.682Z,0
2019-01-16T07:21:13.891Z,0
2019-01-16T07:22:16.038Z,0
2019-01-16T07:23:18.168Z,0
2019-01-16T07:24:20.309Z,0
2019-01-16T07:25:22.436Z,0
2019-01-16T07:26:24.569Z,0
2019-01-16T07:27:26.693Z,0
2019-01-16T07:28:28.814Z,0
2019-01-16T07:29:31.222Z,0
2019-01-16T07:30:33.353Z,0
2019-01-16T07:31:35.536Z,0
2019-01-16T07:32:37.674Z,0
2019-01-16T07:33:40.093Z,0
2019-01-16T07:34:42.503Z,0
2019-01-16T07:35:44.654Z,0
2019-01-16T07:36:46.796Z,0
2019-01-16T07:37:48.935Z,1
2019-01-16T07:38:51.071Z,0
2019-01-16T07:39:53.217Z,0
2019-01-16T07:40:55.340Z,0
2019-01-16T07:41:57.491Z,0
2019-01-16T07:42:59.617Z,1
2019-01-16T07:44:01.768Z,1
2019-01-16T07:45:03.911Z,1
2019-01-16T07:46:06.047Z,1
2019-01-16T07:47:08.193Z,1
2019-01-16T07:48:10.334Z,1
2019-01-16T07:49:12.474Z,1
2019-01-16T07:50:18.933Z,0
2019-01-16T07:51:21.102Z,0
2019-01-16T07:52:23.256Z,0
2019-01-16T07:53:25.695Z,0
2019-01-16T07:54:27.817Z,0
2019-01-16T07:55:29.952Z,0
2019-01-16T07:56:32.102Z,0
2019-01-16T07:57:34.235Z,0
2019-01-16T07:58:36.427Z,1
2019-01-16T07:59:38.861Z,1
2019-01-16T08:00:41.292Z,1
2019-01-16T08:01:43.491Z,1
2019-01-16T08:02:45.915Z,1
2019-01-16T08:03:48.050Z,1
2019-01-16T08:04:50.173Z,0
2019-01-16T08:05:52.307Z,0
2019-01-16T08:06:54.444Z,1
2019-01-16T08:07:56.577Z,1
2019-01-16T08:08:58.709Z,1
2019-01-16T08:10:01.277Z,1
2019-01-16T08:11:03.421Z,1
2019-01-16T08:12:05.546Z,1
2019-01-16T08:13:07.987Z,1
2019-01-16T08:14:10.134Z,1
2019-01-16T08:15:12.320Z,1
2019-01-16T08:16:14.458Z,1
2019-01-16T08:17:16.582Z,1
2019-01-16T08:18:18.717Z,2
2019-01-16T08:19:20.842Z,3
2019-01-16T08:20:26.775Z,3
2019-01-16T08:21:28.931Z,2
2019-01-16T08:22:31.084Z,2
2019-01-16T08:23:33.273Z,1
2019-01-16T08:24:35.391Z,2
2019-01-16T08:25:37.519Z,2
2019-01-16T08:26:40.031Z,2
2019-01-16T08:27:42.555Z,2
2019-01-16T08:28:44.721Z,2
2019-01-16T08:29:46.868Z,3
2019-01-16T08:30:49.002Z,3
2019-01-16T08:31:51.149Z,4
2019-01-16T08:32:53.279Z,3
2019-01-16T08:33:55.399Z,2
2019-01-16T08:34:57.541Z,1
2019-01-16T08:35:59.692Z,1
2019-01-16T08:37:01.817Z,2
2019-01-16T08:38:03.928Z,2
2019-01-16T08:39:06.048Z,2
2019-01-16T08:40:08.176Z,1
2019-01-16T08:41:10.334Z,2
2019-01-16T08:42:12.485Z,2
2019-01-16T08:43:14.666Z,3
2019-01-16T08:44:16.804Z,4
2019-01-16T08:45:18.953Z,5
2019-01-16T08:46:21.106Z,4
2019-01-16T08:47:23.231Z,6
2019-01-16T08:48:25.404Z,6
2019-01-16T08:49:27.836Z,6
2019-01-16T08:50:34.157Z,6
2019-01-16T08:51:36.287Z,6
2019-01-16T08:52:38.422Z,5
2019-01-16T08:53:40.566Z,5
2019-01-16T08:54:42.751Z,6
2019-01-16T08:55:44.902Z,5
2019-01-16T08:56:47.077Z,5
2019-01-16T08:57:49.593Z,5
2019-01-16T08:58:52.019Z,5
2019-01-16T08:59:54.172Z,6
2019-01-16T09:00:56.692Z,6
2019-01-16T09:01:59.131Z,6
2019-01-16T09:03:01.845Z,6
2019-01-16T09:04:04.572Z,6
2019-01-16T09:05:06.687Z,5
2019-01-16T09:06:08.810Z,6
2019-01-16T09:07:10.930Z,6
2019-01-16T09:08:13.411Z,7
2019-01-16T09:09:15.583Z,6
2019-01-16T09:10:17.986Z,6
2019-01-16T09:11:20.112Z,4
2019-01-16T09:12:22.509Z,5
2019-01-16T09:13:24.699Z,6
2019-01-16T09:14:26.821Z,5
2019-01-16T09:15:36.299Z,4
2019-01-16T09:16:38.424Z,4
2019-01-16T09:17:42.232Z,4
2019-01-16T09:18:44.801Z,3
2019-01-16T09:19:46.913Z,3
2019-01-16T09:20:49.043Z,3
2019-01-16T09:21:51.157Z,3
2019-01-16T09:22:53.282Z,3
2019-01-16T09:23:55.407Z,3
2019-01-16T09:24:57.787Z,5
2019-01-16T09:25:59.927Z,4
2019-01-16T09:27:02.046Z,4
2019-01-16T09:28:04.456Z,4
2019-01-16T09:29:06.573Z,5
2019-01-16T09:30:08.985Z,5
2019-01-16T09:31:11.097Z,4
2019-01-16T09:32:13.217Z,4
2019-01-16T09:33:15.726Z,3
2019-01-16T09:34:18.155Z,3
2019-01-16T09:35:20.268Z,3
2019-01-16T09:36:22.374Z,3
2019-01-16T09:37:24.548Z,3
2019-01-16T09:38:27.024Z,3
2019-01-16T09:39:29.428Z,4
2019-01-16T09:40:31.548Z,5
2019-01-16T09:41:33.957Z,5
2019-01-16T09:42:36.085Z,6
2019-01-16T09:43:38.232Z,7
2019-01-16T09:44:40.366Z,6
2019-01-16T09:45:42.463Z,8
2019-01-16T09:46:44.594Z,8
2019-01-16T09:47:46.720Z,9
2019-01-16T09:48:48.831Z,8
2019-01-16T09:49:50.966Z,10
2019-01-16T09:50:53.085Z,14
2019-01-16T09:51:55.588Z,14
2019-01-16T09:52:57.724Z,11
2019-01-16T09:53:59.857Z,12
2019-01-16T09:55:02.754Z,13
2019-01-16T09:56:04.903Z,14
2019-01-16T09:57:07.310Z,14
2019-01-16T09:58:09.412Z,13
2019-01-16T09:59:11.546Z,10
2019-01-16T10:00:13.719Z,8
2019-01-16T10:01:15.832Z,7
2019-01-16T10:02:18.259Z,7
2019-01-16T10:03:20.384Z,6
2019-01-16T10:04:22.500Z,5
2019-01-16T10:05:24.654Z,5
2019-01-16T10:06:27.161Z,6
2019-01-16T10:07:29.263Z,6
2019-01-16T10:08:31.373Z,6
2019-01-16T10:09:33.781Z,6
2019-01-16T10:10:36.044Z,6
2019-01-16T10:11:38.165Z,6
2019-01-16T10:12:40.292Z,5
2019-01-16T10:13:42.427Z,6
2019-01-16T10:14:44.529Z,5
2019-01-16T10:15:46.845Z,6
2019-01-16T10:16:49.412Z,8
2019-01-16T10:17:51.560Z,9
2019-01-16T10:18:53.673Z,7
2019-01-16T10:19:55.806Z,7
2019-01-16T10:20:57.929Z,8
2019-01-16T10:22:00.039Z,7
2019-01-16T10:23:02.174Z,8
2019-01-16T10:24:04.584Z,7
2019-01-16T10:25:06.697Z,10
2019-01-16T10:26:09.310Z,11
2019-01-16T10:27:11.448Z,14
2019-01-16T10:28:13.555Z,14
2019-01-16T10:29:15.674Z,11
2019-01-16T10:30:17.792Z,9
2019-01-16T10:31:19.908Z,12
2019-01-16T10:32:22.432Z,11
2019-01-16T10:33:24.558Z,11
2019-01-16T10:34:26.663Z,8
2019-01-16T10:35:28.781Z,10
2019-01-16T10:36:31.188Z,9
2019-01-16T10:37:33.292Z,10
2019-01-16T10:38:35.423Z,8
2019-01-16T10:39:37.980Z,8
2019-01-16T10:40:40.088Z,8
2019-01-16T10:41:42.206Z,8
2019-01-16T10:42:44.340Z,9
2019-01-16T10:43:46.438Z,8
2019-01-16T10:44:48.557Z,8
2019-01-16T10:45:50.687Z,8
2019-01-16T10:46:52.800Z,6
2019-01-16T10:47:54.934Z,8
2019-01-16T10:48:57.041Z,7
2019-01-16T10:49:59.158Z,6
2019-01-16T10:51:04.627Z,6
2019-01-16T10:52:07.048Z,7
2019-01-16T10:53:09.150Z,7
2019-01-16T10:54:11.561Z,7
2019-01-16T10:55:13.684Z,8
2019-01-16T10:56:15.778Z,9
2019-01-16T10:57:17.900Z,9
2019-01-16T10:58:20.299Z,8
2019-01-16T10:59:22.419Z,9
2019-01-16T11:00:24.520Z,10
2019-01-16T11:01:26.659Z,9
2019-01-16T11:02:28.773Z,10
2019-01-16T11:03:31.298Z,9
2019-01-16T11:04:33.439Z,11
2019-01-16T11:05:35.538Z,11
2019-01-16T11:06:37.658Z,11
2019-01-16T11:07:39.789Z,13
2019-01-16T11:08:41.898Z,14
2019-01-16T11:09:44.002Z,13
2019-01-16T11:10:46.113Z,13
2019-01-16T11:11:48.225Z,14
2019-01-16T11:12:50.935Z,14
2019-01-16T11:13:53.058Z,15
2019-01-16T11:14:55.451Z,13
2019-01-16T11:15:57.552Z,11
2019-01-16T11:16:59.695Z,11
2019-01-16T11:18:01.802Z,11
2019-01-16T11:19:03.914Z,13
2019-01-16T11:20:06.041Z,13
2019-01-16T11:21:12.724Z,14
2019-01-16T11:22:14.840Z,14
2019-01-16T11:23:16.959Z,15
2019-01-16T11:24:19.371Z,15
2019-01-16T11:25:21.495Z,13
2019-01-16T11:26:23.603Z,13
2019-01-16T11:27:25.725Z,13
2019-01-16T11:28:27.860Z,8
2019-01-16T11:29:29.970Z,6
2019-01-16T11:30:32.100Z,6
2019-01-16T11:31:34.215Z,6
2019-01-16T11:32:36.336Z,8
2019-01-16T11:33:38.448Z,8
2019-01-16T11:34:40.571Z,9
2019-01-16T11:35:43.101Z,9
2019-01-16T11:36:45.210Z,9
2019-01-16T11:37:47.335Z,6
2019-01-16T11:38:49.439Z,6
2019-01-16T11:39:51.558Z,5
2019-01-16T11:40:53.691Z,5
2019-01-16T11:41:56.199Z,6
2019-01-16T11:42:58.313Z,5
2019-01-16T11:44:00.436Z,6
2019-01-16T11:45:02.556Z,7
2019-01-16T11:46:04.669Z,10
2019-01-16T11:47:06.795Z,10
2019-01-16T11:48:09.200Z,13
2019-01-16T11:49:11.308Z,11
2019-01-16T11:50:13.437Z,12
2019-01-16T11:51:20.255Z,12
2019-01-16T11:52:22.370Z,9
2019-01-16T11:53:24.499Z,8
2019-01-16T11:54:26.602Z,7
2019-01-16T11:55:28.728Z,6
2019-01-16T11:56:30.851Z,6
2019-01-16T11:57:32.982Z,6
2019-01-16T11:58:35.084Z,7
2019-01-16T11:59:37.221Z,9
2019-01-16T12:00:39.345Z,9
2019-01-16T12:01:41.735Z,8
2019-01-16T12:02:44.244Z,9
2019-01-16T12:03:46.377Z,9
2019-01-16T12:04:50.080Z,11
2019-01-16T12:05:52.206Z,11
2019-01-16T12:06:54.609Z,14
2019-01-16T12:07:56.737Z,16
2019-01-16T12:08:58.849Z,15
2019-01-16T12:10:01.083Z,14
2019-01-16T12:11:03.216Z,11
2019-01-16T12:12:05.333Z,9
2019-01-16T12:13:08.034Z,10
2019-01-16T12:14:10.561Z,10
2019-01-16T12:15:12.679Z,9
2019-01-16T12:16:15.069Z,11
2019-01-16T12:17:17.189Z,12
2019-01-16T12:18:19.580Z,11
2019-01-16T12:19:21.992Z,15
2019-01-16T12:20:24.117Z,10
2019-01-16T12:21:27.993Z,10
2019-01-16T12:22:30.101Z,11
2019-01-16T12:23:32.237Z,9
2019-01-16T12:24:34.360Z,8
2019-01-16T12:25:36.481Z,7
2019-01-16T12:26:38.613Z,8
2019-01-16T12:27:40.713Z,9
2019-01-16T12:28:42.837Z,6
2019-01-16T12:29:45.238Z,6
2019-01-16T12:30:47.372Z,5
2019-01-16T12:31:51.154Z,5
2019-01-16T12:32:53.292Z,6
2019-01-16T12:33:55.427Z,7
2019-01-16T12:34:57.842Z,6
2019-01-16T12:35:59.979Z,6
2019-01-16T12:37:02.096Z,6
2019-01-16T12:38:04.503Z,7
2019-01-16T12:39:06.622Z,6
2019-01-16T12:40:08.765Z,6
2019-01-16T12:41:10.883Z,8
2019-01-16T12:42:13.286Z,8
2019-01-16T12:43:15.401Z,8
2019-01-16T12:44:17.584Z,9
2019-01-16T12:45:19.704Z,7
2019-01-16T12:46:22.118Z,6
2019-01-16T12:47:24.300Z,5
2019-01-16T12:48:26.471Z,5
2019-01-16T12:49:28.585Z,4
2019-01-16T12:50:31.099Z,6
2019-01-16T12:51:35.006Z,6
2019-01-16T12:52:37.121Z,7
2019-01-16T12:53:39.251Z,7
2019-01-16T12:54:41.373Z,8
2019-01-16T12:55:43.478Z,8
2019-01-16T12:56:45.604Z,11
2019-01-16T12:57:47.715Z,10
2019-01-16T12:58:49.835Z,11
2019-01-16T12:59:51.961Z,9
2019-01-16T13:00:54.061Z,8
2019-01-16T13:01:56.197Z,8
2019-01-16T13:02:58.321Z,9
2019-01-16T13:04:00.757Z,8
2019-01-16T13:05:03.263Z,8
2019-01-16T13:06:06.062Z,7
2019-01-16T13:07:08.177Z,8
2019-01-16T13:08:10.280Z,7
2019-01-16T13:09:12.419Z,7
2019-01-16T13:10:14.528Z,7
2019-01-16T13:11:16.644Z,7
2019-01-16T13:12:18.764Z,5
2019-01-16T13:13:20.895Z,5
2019-01-16T13:14:22.997Z,4
2019-01-16T13:15:25.124Z,4
2019-01-16T13:16:27.249Z,4
2019-01-16T13:17:29.349Z,5
2019-01-16T13:18:31.483Z,5
2019-01-16T13:19:33.906Z,6
2019-01-16T13:20:36.011Z,6
2019-01-16T13:21:41.471Z,7
2019-01-16T13:22:47.708Z,13
2019-01-16T13:23:49.825Z,11
2019-01-16T13:24:51.969Z,7
2019-01-16T13:25:54.096Z,7
2019-01-16T13:26:56.607Z,7
2019-01-16T13:27:58.732Z,7
2019-01-16T13:29:00.865Z,7
2019-01-16T13:30:03.276Z,7
2019-01-16T13:31:05.397Z,8
2019-01-16T13:32:07.513Z,10
2019-01-16T13:33:09.621Z,11
2019-01-16T13:34:11.750Z,10
2019-01-16T13:35:13.857Z,11
2019-01-16T13:36:15.974Z,11
2019-01-16T13:37:18.074Z,13
2019-01-16T13:38:20.207Z,12
2019-01-16T13:39:22.319Z,12
2019-01-16T13:40:24.439Z,12
2019-01-16T13:41:26.569Z,11
2019-01-16T13:42:28.667Z,11
2019-01-16T13:43:30.792Z,10
2019-01-16T13:44:32.907Z,10
2019-01-16T13:45:35.032Z,8
2019-01-16T13:46:37.424Z,7
2019-01-16T13:47:39.546Z,6
2019-01-16T13:48:41.935Z,6
2019-01-16T13:49:44.038Z,6
2019-01-16T13:50:46.166Z,6
2019-01-16T13:51:48.320Z,5
2019-01-16T13:52:50.483Z,6
2019-01-16T13:53:52.690Z,6
2019-01-16T13:54:54.806Z,6
2019-01-16T13:55:56.909Z,7
2019-01-16T13:56:59.061Z,6
2019-01-16T13:58:01.191Z,5
2019-01-16T13:59:03.306Z,5
2019-01-16T14:00:05.402Z,5
2019-01-16T14:01:07.523Z,6
2019-01-16T14:02:09.656Z,6
2019-01-16T14:03:11.756Z,5
2019-01-16T14:04:13.874Z,5
2019-01-16T14:05:16.001Z,5
2019-01-16T14:06:18.103Z,5
2019-01-16T14:07:20.623Z,6
2019-01-16T14:08:22.740Z,5
2019-01-16T14:09:24.860Z,4
2019-01-16T14:10:27.257Z,5
2019-01-16T14:11:29.388Z,5
2019-01-16T14:12:31.774Z,5
2019-01-16T14:13:33.891Z,5
2019-01-16T14:14:36.037Z,4
2019-01-16T14:15:38.134Z,5
2019-01-16T14:16:40.266Z,4
2019-01-16T14:17:42.383Z,4
2019-01-16T14:18:44.509Z,3
2019-01-16T14:19:46.611Z,3
2019-01-16T14:20:49.147Z,3
2019-01-16T14:21:54.477Z,3
2019-01-16T14:22:56.609Z,3
2019-01-16T14:23:58.744Z,4
2019-01-16T14:25:01.250Z,3
2019-01-16T14:26:03.367Z,2
2019-01-16T14:27:05.513Z,2
2019-01-16T14:28:07.621Z,3
2019-01-16T14:29:13.249Z,3
2019-01-16T14:30:15.373Z,2
2019-01-16T14:31:17.480Z,2
2019-01-16T14:32:19.872Z,2
2019-01-16T14:33:22.664Z,2
2019-01-16T14:34:24.783Z,1
2019-01-16T14:35:26.905Z,2
2019-01-16T14:36:29.004Z,2
2019-01-16T14:37:31.121Z,2
2019-01-16T14:38:33.241Z,2
2019-01-16T14:39:35.353Z,2
2019-01-16T14:40:37.780Z,2
2019-01-16T14:41:39.890Z,2
2019-01-16T14:42:42.293Z,2
2019-01-16T14:43:44.408Z,2
2019-01-16T14:44:46.534Z,2
2019-01-16T14:45:48.683Z,1
2019-01-16T14:46:50.793Z,1
2019-01-16T14:47:52.916Z,1
2019-01-16T14:48:55.012Z,1
2019-01-16T14:49:57.141Z,2
2019-01-16T14:50:59.548Z,2
2019-01-16T14:52:01.672Z,2
2019-01-16T14:53:03.776Z,1
2019-01-16T14:54:05.897Z,1
2019-01-16T14:55:08.015Z,1
2019-01-16T14:56:10.405Z,1
2019-01-16T14:57:12.531Z,1
2019-01-16T14:58:14.630Z,1
2019-01-16T14:59:16.750Z,1
2019-01-16T15:00:19.196Z,0
2019-01-16T15:01:21.314Z,0
2019-01-16T15:02:23.423Z,0
2019-01-16T15:03:26.116Z,0
2019-01-16T15:04:28.219Z,0
2019-01-16T15:05:30.331Z,0
2019-01-16T15:06:32.471Z,0
2019-01-16T15:07:34.582Z,0
2019-01-16T15:08:37.075Z,0
2019-01-16T15:09:39.202Z,0
2019-01-16T15:10:41.310Z,0
2019-01-16T15:11:43.425Z,0
2019-01-16T15:12:45.553Z,0
2019-01-16T15:13:47.685Z,0
2019-01-16T15:14:49.798Z,0
2019-01-16T15:15:51.912Z,0
2019-01-16T15:16:54.016Z,0
2019-01-16T15:17:56.454Z,0
2019-01-16T15:18:58.561Z,0